Humphrey, Nebraska
Current Conditions -  °F | °C
As of 5:55 PM on Sunday 21 Dec 2014 (Local Time) from KOLU Reporting Station
Overcast Overcast  
Wind Chill: 34°   Ceiling: 800
Heat Index: 41°   Visibility: 5mi
Dew Point: 36°   Wind: 12mph
Humidity: 81%   Direction: 190°S
Pressure: 29.66"   Gusts: NA
Location:  41.69°N, 97.48°W
Report Text: KOLU 212355Z AUTO 19010KT 5SM OVC008 05/02 A2966 RMK AO1 10050 20030 400501010 57007
Loading
Personal Weather Stations






























Interactive Weather Map New forecast layout! Learn more

10-Day Weather Forecast

Advertisements
Track Severe Weather on mobile